createdAt,value
2019-02-16T00:00:10.159Z,4.20
2019-02-16T00:02:38.655Z,4.30
2019-02-16T00:05:07.284Z,4.87
2019-02-16T00:07:36.042Z,4.47
2019-02-16T00:10:05.741Z,4.73
2019-02-16T00:12:34.497Z,5.10
2019-02-16T00:15:03.448Z,5.47
2019-02-16T00:17:31.906Z,5.20
2019-02-16T00:20:00.382Z,5.80
2019-02-16T00:22:28.844Z,4.90
2019-02-16T00:24:57.308Z,5.17
2019-02-16T00:27:25.796Z,5.40
2019-02-16T00:29:54.250Z,4.80
2019-02-16T00:32:22.751Z,5.00
2019-02-16T00:34:51.203Z,4.90
2019-02-16T00:37:19.686Z,4.80
2019-02-16T00:39:48.154Z,5.20
2019-02-16T00:42:16.627Z,5.10
2019-02-16T00:44:45.117Z,4.90
2019-02-16T00:47:13.623Z,4.83
2019-02-16T00:49:42.159Z,5.20
2019-02-16T00:52:10.608Z,5.20
2019-02-16T00:54:39.159Z,4.87
2019-02-16T00:57:07.923Z,4.80
2019-02-16T00:59:36.402Z,5.20
2019-02-16T01:02:04.845Z,5.73
2019-02-16T01:04:33.327Z,5.30
2019-02-16T01:07:01.795Z,4.87
2019-02-16T01:09:30.256Z,4.63
2019-02-16T01:11:58.715Z,4.90
2019-02-16T01:14:27.172Z,4.87
2019-02-16T01:16:55.638Z,4.83
2019-02-16T01:19:24.106Z,4.80
2019-02-16T01:21:52.567Z,4.70
2019-02-16T01:24:21.325Z,4.67
2019-02-16T01:26:49.775Z,4.90
2019-02-16T01:29:18.217Z,5.10
2019-02-16T01:31:46.693Z,5.33
2019-02-16T01:34:15.154Z,5.73
2019-02-16T01:36:43.614Z,5.20
2019-02-16T01:39:12.061Z,5.50
2019-02-16T01:41:40.617Z,5.90
2019-02-16T01:44:09.389Z,6.17
2019-02-16T01:46:38.179Z,6.53
2019-02-16T01:49:06.889Z,6.00
2019-02-16T01:51:35.342Z,5.80
2019-02-16T01:54:03.805Z,6.33
2019-02-16T01:56:32.273Z,6.10
2019-02-16T01:59:00.716Z,6.13
2019-02-16T02:01:29.205Z,5.40
2019-02-16T02:03:57.655Z,5.77
2019-02-16T02:06:26.121Z,5.80
2019-02-16T02:08:54.609Z,5.87
2019-02-16T02:11:23.093Z,5.37
2019-02-16T02:13:51.537Z,5.70
2019-02-16T02:16:20.013Z,5.77
2019-02-16T02:18:48.489Z,6.47
2019-02-16T02:21:16.953Z,6.23
2019-02-16T02:23:45.445Z,6.17
2019-02-16T02:26:13.881Z,6.57
2019-02-16T02:28:42.385Z,6.40
2019-02-16T02:31:10.848Z,5.23
2019-02-16T02:33:39.386Z,5.30
2019-02-16T02:36:07.859Z,5.73
2019-02-16T02:38:36.403Z,5.80
2019-02-16T02:41:04.845Z,5.33
2019-02-16T02:43:33.313Z,5.50
2019-02-16T02:46:02.139Z,5.60
2019-02-16T02:48:30.595Z,5.37
2019-02-16T02:50:59.061Z,5.30
2019-02-16T02:53:31.245Z,5.33
2019-02-16T02:55:57.986Z,4.40
2019-02-16T02:58:26.456Z,5.00
2019-02-16T03:00:54.958Z,4.63
2019-02-16T03:03:23.423Z,5.33
2019-02-16T03:05:51.936Z,4.73
2019-02-16T03:08:20.406Z,5.37
2019-02-16T03:10:48.873Z,5.40
2019-02-16T03:13:17.349Z,5.30
2019-02-16T03:15:45.805Z,5.43
2019-02-16T03:18:14.558Z,5.10
2019-02-16T03:20:43.011Z,5.00
2019-02-16T03:23:16.164Z,4.40
2019-02-16T03:26:22.229Z,5.10
2019-02-16T03:28:53.790Z,4.27
2019-02-16T03:31:57.200Z,4.23
2019-02-16T03:34:29.120Z,4.23
2019-02-16T03:37:29.410Z,4.57
2019-02-16T03:39:58.246Z,4.03
2019-02-16T03:42:26.716Z,3.67
2019-02-16T03:44:55.183Z,3.30
2019-02-16T03:47:23.631Z,3.17
2019-02-16T03:49:52.099Z,2.73
2019-02-16T03:52:20.559Z,2.53
2019-02-16T03:54:49.040Z,2.07
2019-02-16T03:57:17.501Z,2.30
2019-02-16T03:59:45.941Z,2.67
2019-02-16T04:02:14.419Z,2.80
2019-02-16T04:04:42.865Z,3.40
2019-02-16T04:07:11.416Z,3.53
2019-02-16T04:09:39.881Z,3.90
2019-02-16T04:12:08.352Z,4.00
2019-02-16T04:14:36.809Z,2.97
2019-02-16T04:17:05.319Z,2.20
2019-02-16T04:19:33.775Z,2.70
2019-02-16T04:22:02.235Z,2.67
2019-02-16T04:24:30.702Z,3.00
2019-02-16T04:26:59.169Z,3.00
2019-02-16T04:29:27.643Z,3.40
2019-02-16T04:31:56.112Z,3.53
2019-02-16T04:34:24.578Z,3.57
2019-02-16T04:36:53.035Z,3.40
2019-02-16T04:39:21.515Z,3.17
2019-02-16T04:41:49.976Z,3.03
2019-02-16T04:44:18.763Z,3.83
2019-02-16T04:46:47.229Z,3.87
2019-02-16T04:49:15.679Z,4.20
2019-02-16T04:51:44.184Z,4.27
2019-02-16T04:54:12.638Z,4.77
2019-02-16T04:56:41.375Z,5.43
2019-02-16T04:59:09.868Z,6.10
2019-02-16T05:01:38.339Z,7.67
2019-02-16T05:04:07.125Z,7.27
2019-02-16T05:06:35.630Z,7.70
2019-02-16T05:09:06.219Z,9.00
2019-02-16T05:11:34.713Z,9.80
2019-02-16T05:14:03.158Z,9.50
2019-02-16T05:16:31.991Z,10.17
2019-02-16T05:19:00.467Z,9.67
2019-02-16T05:21:28.928Z,10.90
2019-02-16T05:23:57.404Z,10.43
2019-02-16T05:26:25.872Z,11.13
2019-02-16T05:28:54.354Z,11.60
2019-02-16T05:31:22.827Z,11.67
2019-02-16T05:33:51.313Z,11.47
2019-02-16T05:36:19.852Z,12.13
2019-02-16T05:38:48.585Z,11.70
2019-02-16T05:41:17.047Z,11.90
2019-02-16T05:43:45.535Z,10.93
2019-02-16T05:46:13.998Z,11.60
2019-02-16T05:48:42.479Z,11.13
2019-02-16T05:51:11.274Z,12.20
2019-02-16T05:53:39.800Z,12.97
2019-02-16T05:56:08.312Z,13.33
2019-02-16T05:58:36.850Z,14.97
2019-02-16T06:01:05.342Z,14.13
2019-02-16T06:03:33.795Z,13.47
2019-02-16T06:06:02.566Z,13.67
2019-02-16T06:08:31.038Z,14.27
2019-02-16T06:10:59.517Z,12.97
2019-02-16T06:13:28.059Z,14.97
2019-02-16T06:15:56.623Z,15.63
2019-02-16T06:18:25.088Z,15.10
2019-02-16T06:20:53.538Z,14.30
2019-02-16T06:23:22.027Z,12.50
2019-02-16T06:25:50.815Z,13.20
2019-02-16T06:28:19.547Z,11.30
2019-02-16T06:30:48.001Z,11.83
2019-02-16T06:33:16.512Z,10.97
2019-02-16T06:35:46.602Z,10.50
2019-02-16T06:38:15.063Z,10.60
2019-02-16T06:40:43.561Z,9.03
2019-02-16T06:43:12.039Z,9.33
2019-02-16T06:45:40.541Z,9.83
2019-02-16T06:48:09.009Z,8.83
2019-02-16T06:50:37.467Z,9.00
2019-02-16T06:53:12.884Z,9.00
2019-02-16T06:55:40.526Z,9.07
2019-02-16T06:58:08.964Z,9.27
2019-02-16T07:00:37.436Z,9.60
2019-02-16T07:03:05.973Z,9.67
2019-02-16T07:05:34.825Z,9.80
2019-02-16T07:08:03.299Z,9.80
2019-02-16T07:10:31.738Z,10.57
2019-02-16T07:13:00.208Z,10.83
2019-02-16T07:15:28.693Z,10.77
2019-02-16T07:18:10.810Z,12.20
2019-02-16T07:20:39.291Z,10.20
2019-02-16T07:23:07.751Z,10.17
2019-02-16T07:25:36.207Z,9.73
2019-02-16T07:28:04.687Z,12.77
2019-02-16T07:30:33.399Z,12.53
2019-02-16T07:33:01.895Z,12.30
2019-02-16T07:35:30.355Z,14.80
2019-02-16T07:37:58.821Z,15.47
2019-02-16T07:40:27.301Z,15.57
2019-02-16T07:42:56.549Z,16.10
2019-02-16T07:45:34.331Z,17.43
2019-02-16T07:48:16.577Z,17.10
2019-02-16T07:50:46.680Z,16.50
2019-02-16T07:53:19.558Z,18.87
2019-02-16T07:55:49.679Z,17.23
2019-02-16T07:58:20.148Z,18.20
2019-02-16T08:00:53.645Z,18.43
2019-02-16T08:03:32.829Z,16.87
2019-02-16T08:06:15.391Z,14.47
2019-02-16T08:08:45.489Z,14.87
2019-02-16T08:11:18.599Z,14.80
2019-02-16T08:13:51.817Z,14.23
2019-02-16T08:16:31.495Z,14.20
2019-02-16T08:19:04.827Z,14.80
2019-02-16T08:21:51.500Z,14.10
2019-02-16T08:24:21.859Z,12.97
2019-02-16T08:27:08.692Z,13.10
2019-02-16T08:29:38.775Z,12.17
2019-02-16T08:32:09.127Z,11.97
2019-02-16T08:34:39.251Z,11.60
2019-02-16T08:37:15.348Z,11.10
2019-02-16T08:39:54.688Z,11.97
2019-02-16T08:42:30.907Z,9.60
2019-02-16T08:45:06.976Z,10.13
2019-02-16T08:47:37.089Z,10.20
2019-02-16T08:50:19.961Z,10.57
2019-02-16T08:52:53.097Z,10.10
2019-02-16T08:55:23.201Z,9.33
2019-02-16T08:57:59.429Z,9.53
2019-02-16T09:00:29.912Z,10.80
2019-02-16T09:03:02.751Z,10.67
2019-02-16T09:05:32.904Z,10.67
2019-02-16T09:08:05.931Z,13.30
2019-02-16T09:10:36.046Z,10.63
2019-02-16T09:13:08.712Z,10.87
2019-02-16T09:15:38.899Z,11.33
2019-02-16T09:18:21.273Z,10.60
2019-02-16T09:20:51.371Z,9.87
2019-02-16T09:23:37.888Z,9.83
2019-02-16T09:26:07.982Z,8.57
2019-02-16T09:28:43.601Z,8.80
2019-02-16T09:31:19.781Z,7.90
2019-02-16T09:34:04.877Z,7.30
2019-02-16T09:36:40.848Z,7.60
2019-02-16T09:39:16.977Z,7.50
2019-02-16T09:41:49.528Z,7.23
2019-02-16T09:44:22.613Z,5.93
2019-02-16T09:46:55.686Z,6.50
2019-02-16T09:49:28.816Z,6.17
2019-02-16T09:52:08.503Z,5.40
2019-02-16T09:54:53.337Z,5.53
2019-02-16T09:57:32.249Z,5.57
2019-02-16T10:00:08.624Z,5.90
2019-02-16T10:02:54.022Z,6.97
2019-02-16T10:05:26.880Z,6.90
2019-02-16T10:07:56.983Z,8.23
2019-02-16T10:10:27.435Z,8.87
2019-02-16T10:13:03.569Z,9.90
2019-02-16T10:15:42.573Z,9.00
2019-02-16T10:18:21.655Z,7.67
2019-02-16T10:21:07.123Z,7.70
2019-02-16T10:23:53.266Z,6.17
2019-02-16T10:26:32.244Z,6.00
2019-02-16T10:29:04.853Z,7.47
2019-02-16T10:31:34.949Z,6.53
2019-02-16T10:34:14.311Z,6.30
2019-02-16T10:36:44.456Z,6.70
2019-02-16T10:39:14.950Z,7.80
2019-02-16T10:41:45.126Z,6.60
2019-02-16T10:44:15.261Z,5.87
2019-02-16T10:46:45.714Z,6.70
2019-02-16T10:49:15.822Z,5.63
2019-02-16T10:51:48.455Z,5.97
2019-02-16T10:54:31.124Z,6.20
2019-02-16T10:57:04.530Z,5.73
2019-02-16T10:59:34.629Z,6.30
2019-02-16T11:02:11.221Z,7.40
2019-02-16T11:04:41.327Z,7.70
2019-02-16T11:07:11.451Z,8.97
2019-02-16T11:09:44.317Z,7.77
2019-02-16T11:12:17.224Z,7.47
2019-02-16T11:14:59.624Z,5.53
2019-02-16T11:17:46.232Z,5.03
2019-02-16T11:20:19.435Z,6.77
2019-02-16T11:22:49.577Z,7.77
2019-02-16T11:25:19.766Z,9.47
2019-02-16T11:28:04.630Z,9.27
2019-02-16T11:30:40.748Z,10.03
2019-02-16T11:33:13.643Z,10.27
2019-02-16T11:35:44.115Z,10.00
2019-02-16T11:38:16.268Z,9.23
2019-02-16T11:40:48.781Z,7.97
2019-02-16T11:43:21.620Z,8.67
2019-02-16T11:46:00.505Z,7.73
2019-02-16T11:48:42.466Z,7.67
2019-02-16T11:51:12.567Z,7.20
2019-02-16T11:53:45.657Z,7.43
2019-02-16T11:56:25.025Z,7.30
2019-02-16T11:59:02.728Z,6.97
2019-02-16T12:01:40.616Z,6.90
2019-02-16T12:04:28.300Z,7.03
2019-02-16T12:07:03.872Z,6.87
2019-02-16T12:09:40.016Z,7.00
2019-02-16T12:12:12.818Z,7.27
2019-02-16T12:14:42.934Z,6.97
2019-02-16T12:17:15.791Z,7.60
2019-02-16T12:19:54.799Z,7.43
2019-02-16T12:22:24.937Z,7.47
2019-02-16T12:25:05.776Z,8.50
2019-02-16T12:27:49.149Z,8.60
2019-02-16T12:30:28.255Z,8.50
2019-02-16T12:33:01.063Z,7.30
2019-02-16T12:35:47.859Z,8.37
2019-02-16T12:38:17.977Z,8.27
2019-02-16T12:40:48.076Z,8.07
2019-02-16T12:43:34.351Z,8.77
2019-02-16T12:46:16.468Z,7.87
2019-02-16T12:48:49.699Z,7.57
2019-02-16T12:51:22.781Z,8.80
2019-02-16T12:53:52.920Z,8.40
2019-02-16T12:56:39.064Z,8.37
2019-02-16T12:59:17.806Z,8.03
2019-02-16T13:01:50.742Z,8.83
2019-02-16T13:04:20.858Z,9.47
2019-02-16T13:06:53.721Z,8.63
2019-02-16T13:09:33.091Z,10.40
2019-02-16T13:12:03.262Z,9.60
2019-02-16T13:14:51.616Z,8.83
2019-02-16T13:17:27.813Z,9.50
2019-02-16T13:20:06.912Z,9.37
2019-02-16T13:22:37.007Z,10.27
2019-02-16T13:25:24.372Z,10.03
2019-02-16T13:27:54.534Z,9.73
2019-02-16T13:30:30.877Z,9.10
2019-02-16T13:33:09.968Z,10.63
2019-02-16T13:35:55.239Z,9.73
2019-02-16T13:38:41.637Z,9.57
2019-02-16T13:41:23.819Z,8.97
2019-02-16T13:43:54.255Z,8.80
2019-02-16T13:46:30.154Z,8.40
2019-02-16T13:49:03.013Z,7.80
2019-02-16T13:51:33.155Z,7.80
2019-02-16T13:54:03.669Z,8.13
2019-02-16T13:56:33.770Z,8.30
2019-02-16T13:59:06.850Z,8.97
2019-02-16T14:01:42.938Z,9.10
2019-02-16T14:04:30.202Z,9.60
2019-02-16T14:07:09.027Z,9.00
2019-02-16T14:09:47.730Z,8.33
2019-02-16T14:12:23.862Z,8.90
2019-02-16T14:14:53.989Z,8.00
2019-02-16T14:17:24.091Z,9.63
2019-02-16T14:19:52.579Z,9.80
2019-02-16T14:22:21.047Z,10.07
2019-02-16T14:24:51.147Z,9.77
2019-02-16T14:27:19.627Z,9.00
2019-02-16T14:29:48.109Z,9.83
2019-02-16T14:32:16.576Z,8.93
2019-02-16T14:34:45.397Z,8.00
2019-02-16T14:37:15.522Z,9.20
2019-02-16T14:39:44.012Z,8.90
2019-02-16T14:42:12.488Z,8.10
2019-02-16T14:44:40.967Z,8.30
2019-02-16T14:47:09.427Z,8.30
2019-02-16T14:49:37.915Z,8.20
2019-02-16T14:52:06.370Z,8.60
2019-02-16T14:54:34.882Z,8.23
2019-02-16T14:57:03.405Z,8.57
2019-02-16T14:59:31.881Z,8.93
2019-02-16T15:02:00.374Z,9.10
2019-02-16T15:04:28.859Z,8.63
2019-02-16T15:06:57.358Z,10.73
2019-02-16T15:09:25.835Z,10.00
2019-02-16T15:11:54.336Z,10.53
2019-02-16T15:14:22.809Z,10.80
2019-02-16T15:16:51.258Z,10.07
2019-02-16T15:19:19.733Z,10.27
2019-02-16T15:21:48.207Z,10.53
2019-02-16T15:24:16.695Z,10.53
2019-02-16T15:26:45.150Z,11.23
2019-02-16T15:29:13.949Z,11.43
2019-02-16T15:31:42.431Z,13.77
2019-02-16T15:34:11.155Z,12.63
2019-02-16T15:36:39.642Z,12.57
2019-02-16T15:39:08.099Z,11.83
2019-02-16T15:41:36.587Z,11.73
2019-02-16T15:44:05.054Z,11.70
2019-02-16T15:46:33.821Z,11.23
2019-02-16T15:49:02.607Z,10.40
2019-02-16T15:51:31.094Z,11.23
2019-02-16T15:53:59.546Z,12.80
2019-02-16T15:56:28.047Z,12.00
2019-02-16T15:58:56.526Z,12.27
2019-02-16T16:01:25.132Z,11.30
2019-02-16T16:03:53.628Z,11.40
2019-02-16T16:06:22.086Z,11.43
2019-02-16T16:08:54.668Z,11.70
2019-02-16T16:11:25.095Z,10.90
2019-02-16T16:13:58.172Z,11.13
2019-02-16T16:16:43.610Z,11.07
2019-02-16T16:19:16.947Z,10.17
2019-02-16T16:21:59.158Z,10.90
2019-02-16T16:24:29.291Z,12.17
2019-02-16T16:26:59.453Z,12.83
2019-02-16T16:29:45.933Z,12.17
2019-02-16T16:32:18.832Z,11.17
2019-02-16T16:34:51.987Z,12.17
2019-02-16T16:37:38.128Z,12.90
2019-02-16T16:40:27.441Z,13.10
2019-02-16T16:43:15.345Z,13.20
2019-02-16T16:45:51.633Z,13.40
2019-02-16T16:48:38.141Z,14.50
2019-02-16T16:51:20.207Z,16.00
2019-02-16T16:53:50.370Z,14.50
2019-02-16T16:56:28.719Z,14.27
2019-02-16T16:59:09.894Z,22.83
2019-02-16T17:01:51.473Z,18.60
2019-02-16T17:04:30.285Z,18.07
2019-02-16T17:07:03.361Z,17.03
2019-02-16T17:09:36.243Z,17.00
2019-02-16T17:12:09.542Z,16.70
2019-02-16T17:14:57.935Z,21.83
2019-02-16T17:17:34.176Z,20.97
2019-02-16T17:20:04.376Z,19.80
2019-02-16T17:22:49.862Z,19.27
2019-02-16T17:25:32.015Z,20.60
2019-02-16T17:28:02.118Z,21.00
2019-02-16T17:30:35.199Z,21.27
2019-02-16T17:33:05.332Z,21.13
2019-02-16T17:35:35.440Z,64.33
2019-02-16T17:38:17.751Z,22.07
2019-02-16T17:40:47.865Z,20.53
2019-02-16T17:43:17.973Z,19.13
2019-02-16T17:45:53.895Z,21.00
2019-02-16T17:48:29.768Z,19.60
2019-02-16T17:51:00.200Z,19.63
2019-02-16T17:53:36.278Z,20.17
2019-02-16T17:56:06.403Z,22.53
2019-02-16T17:58:39.419Z,24.20
2019-02-16T18:01:09.575Z,26.50
2019-02-16T18:03:48.914Z,20.07
2019-02-16T18:06:19.055Z,20.43
2019-02-16T18:09:05.488Z,19.57
2019-02-16T18:11:41.522Z,20.20
2019-02-16T18:14:14.369Z,18.50
2019-02-16T18:16:44.505Z,20.33
2019-02-16T18:19:17.566Z,19.10
2019-02-16T18:21:50.643Z,17.97
2019-02-16T18:24:37.119Z,17.77
2019-02-16T18:27:22.565Z,18.80
2019-02-16T18:30:01.598Z,18.07
2019-02-16T18:32:31.799Z,17.93
2019-02-16T18:35:23.784Z,17.13
2019-02-16T18:37:49.615Z,18.50
2019-02-16T18:40:22.768Z,19.23
2019-02-16T18:42:52.881Z,17.07
2019-02-16T18:45:29.166Z,16.03
2019-02-16T18:48:02.015Z,17.13
2019-02-16T18:50:37.887Z,17.10
2019-02-16T18:53:07.982Z,17.70
2019-02-16T18:55:44.119Z,18.13
2019-02-16T18:58:17.183Z,18.17
2019-02-16T19:00:47.299Z,18.30
2019-02-16T19:03:29.173Z,18.37
2019-02-16T19:06:13.931Z,19.80
2019-02-16T19:08:46.676Z,18.40
2019-02-16T19:11:16.821Z,19.40
2019-02-16T19:13:49.977Z,19.00
2019-02-16T19:16:36.731Z,18.40
2019-02-16T19:19:06.831Z,18.57
2019-02-16T19:21:53.187Z,18.27
2019-02-16T19:24:23.346Z,19.20
2019-02-16T19:26:53.475Z,17.60
2019-02-16T19:29:26.559Z,18.40
2019-02-16T19:31:57.038Z,16.60
2019-02-16T19:34:33.400Z,18.17
2019-02-16T19:37:03.492Z,18.73
2019-02-16T19:39:42.349Z,17.87
2019-02-16T19:42:12.520Z,17.87
2019-02-16T19:44:42.649Z,18.23
2019-02-16T19:47:30.754Z,17.80
2019-02-16T19:50:09.965Z,17.60
2019-02-16T19:52:55.345Z,17.27
2019-02-16T19:55:28.137Z,16.80
2019-02-16T19:57:58.248Z,18.67
2019-02-16T20:00:30.809Z,21.40
2019-02-16T20:03:03.635Z,18.03
2019-02-16T20:05:51.532Z,19.80
2019-02-16T20:08:25.140Z,24.43
2019-02-16T20:11:12.055Z,19.50
2019-02-16T20:13:44.695Z,16.47
2019-02-16T20:16:17.218Z,16.00
2019-02-16T20:19:02.335Z,15.43
2019-02-16T20:21:35.212Z,15.30
2019-02-16T20:24:21.884Z,48.30
2019-02-16T20:27:01.118Z,20.47
2019-02-16T20:29:37.224Z,15.10
2019-02-16T20:32:23.952Z,17.07
2019-02-16T20:34:59.945Z,16.67
2019-02-16T20:37:46.491Z,18.37
2019-02-16T20:40:19.641Z,19.87
2019-02-16T20:42:51.299Z,16.20
2019-02-16T20:45:24.513Z,15.67
2019-02-16T20:48:00.601Z,13.80
2019-02-16T20:50:30.699Z,14.20
2019-02-16T20:53:12.894Z,16.03
2019-02-16T20:55:42.985Z,16.23
2019-02-16T20:58:29.759Z,16.67
2019-02-16T21:01:02.650Z,17.77
2019-02-16T21:03:33.110Z,20.50
2019-02-16T21:06:05.981Z,18.67
2019-02-16T21:08:42.055Z,18.30
2019-02-16T21:11:28.380Z,17.60
2019-02-16T21:14:04.724Z,18.30
2019-02-16T21:16:50.002Z,19.67
2019-02-16T21:19:29.310Z,19.37
2019-02-16T21:22:15.793Z,18.33
2019-02-16T21:24:45.883Z,17.77
2019-02-16T21:27:15.994Z,17.53
2019-02-16T21:29:48.790Z,19.13
2019-02-16T21:32:24.609Z,17.27
2019-02-16T21:34:58.015Z,16.43
2019-02-16T21:37:34.129Z,16.07
2019-02-16T21:40:10.006Z,17.03
2019-02-16T21:42:46.351Z,15.27
2019-02-16T21:45:19.478Z,15.60
2019-02-16T21:47:55.513Z,14.90
2019-02-16T21:50:37.475Z,14.90
2019-02-16T21:53:21.270Z,15.60
2019-02-16T21:55:48.166Z,16.27
2019-02-16T21:58:18.347Z,15.37
2019-02-16T22:00:48.435Z,15.97
2019-02-16T22:03:27.616Z,16.27
2019-02-16T22:06:00.139Z,16.77
2019-02-16T22:08:39.519Z,14.93
2019-02-16T22:11:09.885Z,14.00
2019-02-16T22:13:38.330Z,14.20
2019-02-16T22:16:06.823Z,14.00
2019-02-16T22:18:35.300Z,13.03
2019-02-16T22:21:03.754Z,13.70
2019-02-16T22:23:32.221Z,12.63
2019-02-16T22:26:00.716Z,13.77
2019-02-16T22:28:31.186Z,13.97
2019-02-16T22:30:59.387Z,12.70
2019-02-16T22:33:27.876Z,12.13
2019-02-16T22:35:56.376Z,12.27
2019-02-16T22:38:24.898Z,11.83
2019-02-16T22:40:53.680Z,11.57
2019-02-16T22:43:22.174Z,12.43
2019-02-16T22:45:50.637Z,12.40
2019-02-16T22:48:19.118Z,11.77
2019-02-16T22:50:47.589Z,11.73
2019-02-16T22:53:16.307Z,11.07
2019-02-16T22:55:44.790Z,12.17
2019-02-16T22:58:13.266Z,11.77
2019-02-16T23:00:46.553Z,12.10
2019-02-16T23:03:15.219Z,12.00
2019-02-16T23:05:44.028Z,12.13
2019-02-16T23:08:12.759Z,12.30
2019-02-16T23:10:41.211Z,12.03
2019-02-16T23:13:09.781Z,12.70
2019-02-16T23:15:38.293Z,12.37
2019-02-16T23:18:06.765Z,11.23
2019-02-16T23:20:35.228Z,11.73
2019-02-16T23:23:04.084Z,12.47
2019-02-16T23:25:32.567Z,12.00
2019-02-16T23:28:01.105Z,11.63
2019-02-16T23:30:29.631Z,12.10
2019-02-16T23:32:58.123Z,11.87
2019-02-16T23:35:26.603Z,10.97
2019-02-16T23:37:55.086Z,11.57
2019-02-16T23:40:23.538Z,11.80
2019-02-16T23:42:52.005Z,11.30
2019-02-16T23:45:20.469Z,10.73
2019-02-16T23:47:48.969Z,11.20
2019-02-16T23:50:17.534Z,11.17
2019-02-16T23:52:46.017Z,11.37
2019-02-16T23:55:14.488Z,12.30
2019-02-16T23:57:43.003Z,11.73
